Time;durP1;ratioP1;P1;durP2;ratioP2;P2;SDS_P1;SDS_P2;PMS_P1;PMS_P2;Temp;Humidity;BMP_temperature;BMP_pressure;BME280_temperature;BME280_humidity;BME280_pressure;Samples;Min_cycle;Max_cycle;Signal;HPM_P1;HPM_P2
2023/06/26 00:01:53;;;;;;;15.00;8.40;;;;;;;;;;4949100;28;20225;-70
2023/06/26 00:08:12;;;;;;;13.00;7.63;;;;;;;;;;4949813;28;20249;-70
2023/06/26 00:14:39;;;;;;;12.77;7.10;;;;;;;;;;4949278;29;20177;-70
2023/06/26 00:21:05;;;;;;;13.43;7.20;;;;;;;;;;4948700;29;20665;-70
2023/06/26 00:27:33;;;;;;;14.97;7.63;;;;;;;;;;4949111;29;20172;-70
2023/06/26 00:38:11;;;;;;;19.17;7.10;;;;;;;;;;4968811;28;20177;-70
2023/06/26 00:44:36;;;;;;;21.17;7.93;;;;;;;;;;4948996;28;20279;-70
2023/06/26 00:51:03;;;;;;;16.43;7.60;;;;;;;;;;4948413;29;20220;-70
2023/06/26 00:57:30;;;;;;;15.73;8.47;;;;;;;;;;4949000;29;20877;-70
2023/06/26 01:03:57;;;;;;;13.73;7.37;;;;;;;;;;4948733;28;20224;-70
2023/06/26 01:10:27;;;;;;;12.03;7.40;;;;;;;;;;4948289;28;20309;-70
2023/06/26 01:16:57;;;;;;;16.57;7.87;;;;;;;;;;4971318;28;20170;-70
2023/06/26 01:23:24;;;;;;;12.57;7.20;;;;;;;;;;4971309;28;20270;-70
2023/06/26 01:29:49;;;;;;;12.47;7.20;;;;;;;;;;4944150;29;20323;-71
2023/06/26 01:40:23;;;;;;;12.00;6.50;;;;;;;;;;4970501;28;20188;-70
2023/06/26 01:46:49;;;;;;;12.70;8.47;;;;;;;;;;4970866;28;20197;-69
2023/06/26 01:53:17;;;;;;;12.60;7.87;;;;;;;;;;4971090;28;20176;-70
2023/06/26 01:59:42;;;;;;;13.20;6.47;;;;;;;;;;4938915;28;20228;-69
2023/06/26 02:06:19;;;;;;;9.30;5.70;;;;;;;;;;4961431;28;20283;-69
2023/06/26 02:12:46;;;;;;;13.97;6.67;;;;;;;;;;4951199;29;20262;-71
2023/06/26 02:19:21;;;;;;;15.97;7.33;;;;;;;;;;4951458;28;20659;-70
2023/06/26 02:25:47;;;;;;;14.20;8.13;;;;;;;;;;4951170;28;20198;-70
2023/06/26 02:32:13;;;;;;;16.57;7.70;;;;;;;;;;4951375;29;20561;-69
2023/06/26 02:51:04;;;;;;;17.80;7.83;;;;;;;;;;4949913;29;20305;-69
2023/06/26 02:57:31;;;;;;;11.17;7.77;;;;;;;;;;4968734;28;20180;-68
2023/06/26 03:04:00;;;;;;;14.20;7.27;;;;;;;;;;4988010;28;20327;-68
2023/06/26 03:44:05;;;;;;;15.10;7.97;;;;;;;;;;4931132;29;20228;-72
2023/06/26 03:59:33;;;;;;;13.97;7.90;;;;;;;;;;4959403;28;20321;-68
2023/06/26 04:21:19;;;;;;;13.60;7.87;;;;;;;;;;4900254;29;20316;-68
2023/06/26 04:43:31;;;;;;;15.13;8.13;;;;;;;;;;4870934;29;20290;-69
2023/06/26 04:54:02;;;;;;;14.17;8.30;;;;;;;;;;4894331;29;20191;-68
2023/06/26 05:04:28;;;;;;;14.33;8.40;;;;;;;;;;4933358;29;20242;-64
2023/06/26 05:10:47;;;;;;;14.40;6.63;;;;;;;;;;4945517;29;20220;-64
2023/06/26 05:17:49;;;;;;;13.50;6.20;;;;;;;;;;4913994;29;20202;-64
2023/06/26 05:24:26;;;;;;;8.83;4.87;;;;;;;;;;4913684;29;20694;-64
2023/06/26 05:30:52;;;;;;;5.07;3.17;;;;;;;;;;4914034;29;20794;-64
2023/06/26 05:37:19;;;;;;;4.57;2.90;;;;;;;;;;4913886;29;20263;-65
2023/06/26 05:43:45;;;;;;;4.73;3.20;;;;;;;;;;4954206;29;20177;-65
2023/06/26 05:54:42;;;;;;;8.97;3.20;;;;;;;;;;4951438;29;20188;-65
2023/06/26 06:01:07;;;;;;;13.73;4.07;;;;;;;;;;4951572;29;20189;-64
2023/06/26 06:07:33;;;;;;;11.93;4.43;;;;;;;;;;4951425;29;20765;-65
2023/06/26 06:18:37;;;;;;;9.97;3.90;;;;;;;;;;4929364;29;20186;-63
2023/06/26 06:25:39;;;;;;;8.37;3.43;;;;;;;;;;4929635;29;20178;-66
2023/06/26 06:35:58;;;;;;;8.20;2.97;;;;;;;;;;4891572;29;20269;-66
2023/06/26 06:42:23;;;;;;;5.00;2.90;;;;;;;;;;4909545;29;20594;-66
2023/06/26 06:53:07;;;;;;;7.43;3.30;;;;;;;;;;4912118;28;232241;-66
2023/06/26 07:00:14;;;;;;;5.97;2.77;;;;;;;;;;4970030;28;20293;-71
2023/06/26 07:06:51;;;;;;;7.03;3.00;;;;;;;;;;4904485;29;20203;-69
2023/06/26 07:13:18;;;;;;;6.20;3.50;;;;;;;;;;4920958;29;20851;-63
2023/06/26 07:19:45;;;;;;;3.67;3.20;;;;;;;;;;4925791;29;20326;-66
2023/06/26 07:26:47;;;;;;;6.97;2.93;;;;;;;;;;4925841;29;20226;-67
2023/06/26 07:33:16;;;;;;;5.53;3.30;;;;;;;;;;4984334;28;20246;-70
2023/06/26 07:39:43;;;;;;;5.20;2.90;;;;;;;;;;4948037;29;20298;-67
2023/06/26 07:46:09;;;;;;;5.47;3.13;;;;;;;;;;4966858;28;20204;-68
2023/06/26 08:08:15;;;;;;;6.70;3.37;;;;;;;;;;4909589;29;20377;-67
2023/06/26 08:14:43;;;;;;;7.77;3.33;;;;;;;;;;4923855;29;20202;-68
2023/06/26 08:21:11;;;;;;;4.47;3.63;;;;;;;;;;4933936;28;20247;-67
2023/06/26 08:27:38;;;;;;;6.47;3.00;;;;;;;;;;4951949;28;20231;-67
2023/06/26 08:34:40;;;;;;;5.83;3.30;;;;;;;;;;4911226;29;20664;-68
2023/06/26 08:41:06;;;;;;;4.43;3.27;;;;;;;;;;4929449;29;20195;-67
2023/06/26 08:52:35;;;;;;;5.83;3.33;;;;;;;;;;4803779;29;20244;-67
2023/06/26 09:03:01;;;;;;;6.00;3.30;;;;;;;;;;4883526;29;20933;-68
2023/06/26 09:09:21;;;;;;;3.80;3.10;;;;;;;;;;4909128;29;20249;-66
2023/06/26 09:15:47;;;;;;;5.30;3.57;;;;;;;;;;4909483;29;20162;-67
2023/06/26 09:44:24;;;;;;;8.03;3.70;;;;;;;;;;4885990;29;20204;-68
2023/06/26 10:10:02;;;;;;;3.50;3.20;;;;;;;;;;4870207;29;20333;-69
2023/06/26 10:16:28;;;;;;;5.00;3.33;;;;;;;;;;4890210;29;20247;-70
2023/06/26 10:22:55;;;;;;;5.33;3.53;;;;;;;;;;4949553;28;20192;-68
2023/06/26 10:29:21;;;;;;;4.20;3.60;;;;;;;;;;4950263;28;20295;-68
2023/06/26 10:35:49;;;;;;;4.17;3.60;;;;;;;;;;4949928;28;20188;-69
2023/06/26 10:42:17;;;;;;;6.10;3.60;;;;;;;;;;4948644;28;20180;-67
2023/06/26 10:49:03;;;;;;;5.20;3.67;;;;;;;;;;4966809;28;20567;-69
2023/06/26 11:25:56;;;;;;;4.63;3.40;;;;;;;;;;4795470;29;20332;-69
2023/06/26 11:36:51;;;;;;;6.73;3.40;;;;;;;;;;4865393;29;20296;-70
2023/06/26 11:58:37;;;;;;;4.83;3.17;;;;;;;;;;4925237;29;20221;-67
2023/06/26 12:25:07;;;;;;;4.23;3.00;;;;;;;;;;4836965;29;20235;-69
2023/06/26 12:35:57;;;;;;;5.37;3.27;;;;;;;;;;4850634;29;20221;-71
2023/06/26 12:46:55;;;;;;;4.50;3.17;;;;;;;;;;4948435;28;20609;-70
2023/06/26 12:57:46;;;;;;;4.07;3.17;;;;;;;;;;4909410;29;20282;-72
2023/06/26 13:15:20;;;;;;;5.47;3.20;;;;;;;;;;4928757;29;20178;-68
2023/06/26 13:21:49;;;;;;;6.43;2.80;;;;;;;;;;4947457;29;20259;-68
2023/06/26 13:28:15;;;;;;;4.20;2.60;;;;;;;;;;4951276;28;20192;-67
2023/06/26 13:34:42;;;;;;;3.90;2.70;;;;;;;;;;4930747;29;20257;-67
2023/06/26 13:41:08;;;;;;;4.77;2.60;;;;;;;;;;4969522;28;20273;-66
2023/06/26 13:47:34;;;;;;;4.20;3.20;;;;;;;;;;4969890;28;20193;-68
2023/06/26 13:54:01;;;;;;;5.30;3.20;;;;;;;;;;4970815;28;20250;-69
2023/06/26 14:04:39;;;;;;;4.23;3.03;;;;;;;;;;4970513;28;21024;-69
2023/06/26 14:11:07;;;;;;;5.07;3.20;;;;;;;;;;4964259;28;20241;-69
2023/06/26 14:21:49;;;;;;;6.83;3.10;;;;;;;;;;4919966;29;20228;-69
2023/06/26 14:28:15;;;;;;;5.20;3.13;;;;;;;;;;4929391;29;20664;-68
2023/06/26 14:34:40;;;;;;;7.00;3.10;;;;;;;;;;4948007;29;20688;-69
2023/06/26 14:41:06;;;;;;;6.13;3.27;;;;;;;;;;4948194;29;20212;-68
2023/06/26 14:47:32;;;;;;;4.13;3.20;;;;;;;;;;4946079;29;20334;-68
2023/06/26 14:53:59;;;;;;;4.53;2.90;;;;;;;;;;4979135;28;20228;-74
2023/06/26 15:04:25;;;;;;;4.23;3.43;;;;;;;;;;4990670;28;20263;-68
2023/06/26 15:10:51;;;;;;;4.27;3.40;;;;;;;;;;4991402;28;20187;-68
2023/06/26 15:17:17;;;;;;;3.53;2.77;;;;;;;;;;4991716;28;20647;-69
2023/06/26 15:23:43;;;;;;;3.57;3.13;;;;;;;;;;4991511;28;20187;-69
2023/06/26 15:30:46;;;;;;;3.83;2.90;;;;;;;;;;4900192;29;20198;-70
2023/06/26 15:37:12;;;;;;;5.53;3.20;;;;;;;;;;4931168;29;20222;-70
2023/06/26 15:43:39;;;;;;;7.90;3.20;;;;;;;;;;4930612;29;20281;-70
2023/06/26 15:50:16;;;;;;;6.53;3.60;;;;;;;;;;4925451;29;20672;-70
2023/06/26 15:56:42;;;;;;;6.07;3.13;;;;;;;;;;4934722;29;20197;-69
2023/06/26 16:08:03;;;;;;;6.20;3.53;;;;;;;;;;4991502;28;20690;-69
2023/06/26 16:18:28;;;;;;;6.47;4.43;;;;;;;;;;4991244;28;20195;-68
2023/06/26 16:24:48;;;;;;;3.10;2.80;;;;;;;;;;4991193;28;20599;-68
2023/06/26 16:31:14;;;;;;;5.33;3.50;;;;;;;;;;4990973;28;20669;-68
2023/06/26 16:37:40;;;;;;;4.90;3.60;;;;;;;;;;4990790;28;20268;-73
2023/06/26 16:44:06;;;;;;;4.23;3.63;;;;;;;;;;4993046;28;20264;-71
2023/06/26 16:50:43;;;;;;;6.63;3.67;;;;;;;;;;4988834;28;20234;-72
2023/06/26 16:57:11;;;;;;;3.50;3.10;;;;;;;;;;4991694;28;20185;-72
2023/06/26 17:07:42;;;;;;;7.20;3.67;;;;;;;;;;4993231;28;20186;-68
2023/06/26 17:14:10;;;;;;;7.43;3.83;;;;;;;;;;4960206;28;20241;-72
2023/06/26 17:20:36;;;;;;;5.50;3.80;;;;;;;;;;4966327;28;20176;-72
2023/06/26 17:42:41;;;;;;;6.03;3.97;;;;;;;;;;4967981;28;20241;-73
2023/06/26 17:49:08;;;;;;;5.13;3.70;;;;;;;;;;4983000;28;20211;-70
2023/06/26 17:55:34;;;;;;;6.80;3.93;;;;;;;;;;4986985;28;20171;-72
2023/06/26 18:02:00;;;;;;;5.43;3.50;;;;;;;;;;4985448;28;20271;-70
2023/06/26 18:12:38;;;;;;;6.37;4.20;;;;;;;;;;4935085;28;20288;-63
2023/06/26 18:23:33;;;;;;;10.20;3.90;;;;;;;;;;4942686;28;20361;-64
2023/06/26 18:33:58;;;;;;;8.27;4.30;;;;;;;;;;4947253;28;20229;-64
2023/06/26 18:40:26;;;;;;;10.97;4.90;;;;;;;;;;4973033;28;20223;-64
2023/06/26 18:46:52;;;;;;;10.60;4.10;;;;;;;;;;5007641;28;20219;-63
2023/06/26 18:53:19;;;;;;;7.63;4.13;;;;;;;;;;5007866;28;20292;-60
2023/06/26 18:59:46;;;;;;;8.50;4.27;;;;;;;;;;4987729;28;20307;-61
2023/06/26 19:11:05;;;;;;;10.73;4.23;;;;;;;;;;4926852;29;20538;-61
2023/06/26 19:22:16;;;;;;;12.83;4.27;;;;;;;;;;4920993;29;20847;-61
2023/06/26 19:29:00;;;;;;;12.40;4.53;;;;;;;;;;4946199;29;20184;-61
2023/06/26 19:35:25;;;;;;;23.30;7.80;;;;;;;;;;4946586;29;21087;-63
2023/06/26 19:42:04;;;;;;;10.23;4.60;;;;;;;;;;4934197;28;20249;-61
2023/06/26 19:48:42;;;;;;;14.07;5.27;;;;;;;;;;4964521;28;20675;-62
2023/06/26 19:55:09;;;;;;;14.63;5.27;;;;;;;;;;4967610;28;20276;-69
2023/06/26 20:01:37;;;;;;;9.17;5.13;;;;;;;;;;4963665;28;20183;-71
2023/06/26 20:12:15;;;;;;;10.43;4.80;;;;;;;;;;4988531;28;20216;-70
2023/06/26 20:18:43;;;;;;;9.60;4.83;;;;;;;;;;4991840;28;20227;-70
2023/06/26 20:25:11;;;;;;;7.43;4.90;;;;;;;;;;4992185;28;20556;-70
2023/06/26 20:31:38;;;;;;;8.23;4.30;;;;;;;;;;4992096;28;20214;-70
2023/06/26 20:38:04;;;;;;;9.33;4.30;;;;;;;;;;4991585;28;20544;-70
2023/06/26 20:44:30;;;;;;;6.63;4.00;;;;;;;;;;4992042;28;20195;-70
2023/06/26 20:50:56;;;;;;;7.37;4.23;;;;;;;;;;4991699;28;20289;-70
2023/06/26 20:57:25;;;;;;;7.30;3.70;;;;;;;;;;4991673;28;20212;-70
2023/06/26 21:03:53;;;;;;;5.17;3.70;;;;;;;;;;4991601;28;20315;-70
2023/06/26 21:14:31;;;;;;;5.87;3.57;;;;;;;;;;5011578;28;20551;-70
2023/06/26 21:20:58;;;;;;;4.83;3.50;;;;;;;;;;5010892;28;20187;-70
2023/06/26 21:28:01;;;;;;;4.70;3.40;;;;;;;;;;5010621;28;20172;-70
2023/06/26 21:34:38;;;;;;;4.93;3.77;;;;;;;;;;5010503;28;20187;-70
2023/06/26 21:41:03;;;;;;;7.77;3.97;;;;;;;;;;5010209;28;20223;-70
2023/06/26 21:47:30;;;;;;;4.77;3.53;;;;;;;;;;5010368;28;20183;-70
2023/06/26 21:54:32;;;;;;;4.63;3.40;;;;;;;;;;4990543;28;20200;-70
2023/06/26 22:00:59;;;;;;;4.70;3.13;;;;;;;;;;5009883;28;20190;-70
2023/06/26 22:07:27;;;;;;;4.60;3.43;;;;;;;;;;5009817;28;20714;-70
2023/06/26 22:18:19;;;;;;;5.57;3.50;;;;;;;;;;5009161;28;20208;-70
2023/06/26 22:24:45;;;;;;;4.67;3.53;;;;;;;;;;5009212;28;20174;-70
2023/06/26 22:31:12;;;;;;;6.53;3.97;;;;;;;;;;5009035;28;20247;-70
2023/06/26 22:37:39;;;;;;;9.47;3.93;;;;;;;;;;5009081;28;20248;-70
2023/06/26 22:44:04;;;;;;;5.93;3.87;;;;;;;;;;5008602;28;20246;-70
2023/06/26 22:50:31;;;;;;;7.67;4.23;;;;;;;;;;5008974;28;20187;-70
2023/06/26 22:56:58;;;;;;;6.80;4.40;;;;;;;;;;5008858;28;20230;-69
2023/06/26 23:03:23;;;;;;;5.63;4.30;;;;;;;;;;5007882;28;20226;-70
2023/06/26 23:09:49;;;;;;;7.03;4.47;;;;;;;;;;5008679;28;20183;-70
2023/06/26 23:20:29;;;;;;;6.80;4.70;;;;;;;;;;5008820;28;20167;-70
2023/06/26 23:26:56;;;;;;;6.90;4.63;;;;;;;;;;5008319;28;20167;-70
2023/06/26 23:33:28;;;;;;;8.20;5.07;;;;;;;;;;5007847;28;20347;-70
2023/06/26 23:39:55;;;;;;;7.30;4.70;;;;;;;;;;5008364;28;20182;-70
2023/06/26 23:46:20;;;;;;;6.33;4.60;;;;;;;;;;5008152;28;20270;-70
2023/06/26 23:53:23;;;;;;;7.73;4.73;;;;;;;;;;5007692;28;20347;-70
2023/06/26 23:59:50;;;;;;;5.67;4.50;;;;;;;;;;5008379;28;20244;-70
